Time;durP1;ratioP1;P1;durP2;ratioP2;P2;SDS_P1;SDS_P2;PMS_P1;PMS_P2;Temp;Humidity;BMP_temperature;BMP_pressure;BME280_temperature;BME280_humidity;BME280_pressure;Samples;Min_cycle;Max_cycle;Signal;HPM_P1;HPM_P2
2022/09/27 00:01:04;;;;;;;;;;;23.80;46.20;;;;;;1513108;77;754;-67
2022/09/27 00:03:06;;;;;;;;;;;23.80;46.30;;;;;;1516753;77;821;-67
2022/09/27 00:05:08;;;;;;;;;;;23.90;46.30;;;;;;1514921;77;797;-68
2022/09/27 00:07:10;;;;;;;;;;;23.80;46.30;;;;;;1512234;77;1563;-67
2022/09/27 00:09:12;;;;;;;;;;;23.80;46.40;;;;;;1503050;77;1140;-68
2022/09/27 00:11:16;;;;;;;;;;;23.70;46.40;;;;;;1502348;77;773;-68
2022/09/27 00:13:18;;;;;;;;;;;23.80;46.40;;;;;;1494877;77;1692;-66
2022/09/27 00:15:20;;;;;;;;;;;23.80;46.40;;;;;;1484207;78;762;-67
2022/09/27 00:17:22;;;;;;;;;;;23.80;46.40;;;;;;1487829;78;775;-69
2022/09/27 00:19:24;;;;;;;;;;;23.80;46.50;;;;;;1497572;77;1142;-67
2022/09/27 00:21:27;;;;;;;;;;;23.80;46.50;;;;;;1489794;78;1610;-67
2022/09/27 00:23:29;;;;;;;;;;;23.80;46.50;;;;;;1484802;78;788;-67
2022/09/27 00:25:31;;;;;;;;;;;23.80;46.30;;;;;;1490254;78;774;-65
2022/09/27 00:27:32;;;;;;;;;;;23.90;46.30;;;;;;1480443;78;760;-66
2022/09/27 00:29:36;;;;;;;;;;;23.90;46.20;;;;;;1476400;78;1152;-66
2022/09/27 00:31:38;;;;;;;;;;;24.00;46.10;;;;;;1505836;77;619;-63
2022/09/27 00:33:40;;;;;;;;;;;24.00;46.00;;;;;;1484800;78;681;-67
2022/09/27 00:35:42;;;;;;;;;;;24.00;45.90;;;;;;1486571;78;1577;-67
2022/09/27 00:37:44;;;;;;;;;;;24.00;45.80;;;;;;1485634;78;1928;-66
2022/09/27 00:39:46;;;;;;;;;;;24.10;46.00;;;;;;1469490;80;1158;-66
2022/09/27 00:41:48;;;;;;;;;;;24.10;45.80;;;;;;1472612;78;654;-66
2022/09/27 00:43:51;;;;;;;;;;;24.00;45.70;;;;;;1478552;78;707;-67
2022/09/27 00:45:54;;;;;;;;;;;24.00;45.80;;;;;;1476728;78;701;-67
2022/09/27 00:47:58;;;;;;;;;;;24.00;46.00;;;;;;1498328;77;737;-67
2022/09/27 00:50:04;;;;;;;;;;;23.90;46.00;;;;;;1509421;76;1725;-67
2022/09/27 00:52:16;;;;;;;;;;;23.90;46.00;;;;;;1493791;78;776;-66
2022/09/27 00:54:18;;;;;;;;;;;23.90;46.20;;;;;;1489958;78;746;-67
2022/09/27 00:56:21;;;;;;;;;;;23.90;46.30;;;;;;1488653;79;788;-68
2022/09/27 00:58:25;;;;;;;;;;;23.90;46.40;;;;;;1486377;78;1932;-68
2022/09/27 01:00:27;;;;;;;;;;;23.80;46.30;;;;;;1488893;78;753;-66
2022/09/27 01:02:29;;;;;;;;;;;23.80;46.50;;;;;;1481695;78;1543;-67
2022/09/27 01:04:31;;;;;;;;;;;23.90;46.50;;;;;;1468867;79;777;-68
2022/09/27 01:06:33;;;;;;;;;;;23.80;46.40;;;;;;1477302;78;717;-67
2022/09/27 01:08:34;;;;;;;;;;;23.80;46.50;;;;;;1486617;78;1152;-69
2022/09/27 01:10:38;;;;;;;;;;;23.80;46.50;;;;;;1474840;78;783;-68
2022/09/27 01:13:00;;;;;;;;;;;23.70;46.50;;;;;;1499978;77;698;-67
2022/09/27 01:15:07;;;;;;;;;;;23.80;46.60;;;;;;1498225;77;784;-67
2022/09/27 01:17:19;;;;;;;;;;;23.70;46.70;;;;;;1502736;77;1363;-67
2022/09/27 01:19:23;;;;;;;;;;;23.80;46.80;;;;;;1470014;78;1940;-67
2022/09/27 01:21:43;;;;;;;;;;;23.70;46.80;;;;;;1476513;78;780;-67
2022/09/27 01:23:53;;;;;;;;;;;23.70;46.80;;;;;;1481539;78;653;-67
2022/09/27 01:25:56;;;;;;;;;;;23.80;46.80;;;;;;1481362;78;706;-67
2022/09/27 01:28:03;;;;;;;;;;;23.70;46.80;;;;;;1487863;78;912;-68
2022/09/27 01:30:25;;;;;;;;;;;23.70;46.90;;;;;;1484984;78;1133;-67
2022/09/27 01:32:34;;;;;;;;;;;23.70;47.00;;;;;;1511767;77;1627;-67
2022/09/27 01:34:54;;;;;;;;;;;23.70;46.90;;;;;;1483145;79;801;-68
2022/09/27 01:37:01;;;;;;;;;;;23.70;47.00;;;;;;1510217;77;764;-66
2022/09/27 01:39:07;;;;;;;;;;;23.70;47.10;;;;;;1501409;77;1910;-68
2022/09/27 01:41:14;;;;;;;;;;;23.60;47.00;;;;;;1481991;78;821;-67
2022/09/27 01:43:20;;;;;;;;;;;23.70;47.10;;;;;;1495274;77;755;-67
2022/09/27 01:45:29;;;;;;;;;;;23.70;47.10;;;;;;1513881;77;2118;-68
2022/09/27 01:47:39;;;;;;;;;;;23.70;47.20;;;;;;1487160;78;1784;-70
2022/09/27 01:49:52;;;;;;;;;;;23.70;47.20;;;;;;1475851;78;1155;-67
2022/09/27 01:51:55;;;;;;;;;;;23.60;47.10;;;;;;1479717;78;848;-69
2022/09/27 01:53:58;;;;;;;;;;;23.70;47.30;;;;;;1509597;77;1565;-68
2022/09/27 01:56:00;;;;;;;;;;;23.60;47.10;;;;;;1483264;78;731;-68
2022/09/27 01:58:04;;;;;;;;;;;23.60;47.10;;;;;;1490433;78;1929;-67
2022/09/27 02:00:09;;;;;;;;;;;23.80;47.20;;;;;;1523911;76;1623;-66
2022/09/27 02:02:11;;;;;;;;;;;23.80;47.10;;;;;;1513298;77;587;-67
2022/09/27 02:04:14;;;;;;;;;;;23.80;46.90;;;;;;1492702;78;721;-67
2022/09/27 02:06:17;;;;;;;;;;;23.80;46.80;;;;;;1486914;78;694;-67
2022/09/27 02:08:21;;;;;;;;;;;23.90;46.80;;;;;;1487901;79;946;-67
2022/09/27 02:10:23;;;;;;;;;;;23.90;46.70;;;;;;1514022;77;1786;-67
2022/09/27 02:12:27;;;;;;;;;;;23.90;46.70;;;;;;1486795;78;745;-67
2022/09/27 02:14:45;;;;;;;;;;;23.90;46.70;;;;;;1517372;77;1618;-67
2022/09/27 02:16:54;;;;;;;;;;;23.90;46.80;;;;;;1510694;77;641;-68
2022/09/27 02:18:57;;;;;;;;;;;23.80;46.70;;;;;;1502119;77;1925;-67
2022/09/27 02:21:00;;;;;;;;;;;23.80;46.80;;;;;;1488441;78;687;-67
2022/09/27 02:23:06;;;;;;;;;;;23.80;46.80;;;;;;1515445;77;655;-69
2022/09/27 02:25:16;;;;;;;;;;;23.90;46.70;;;;;;1488463;78;1272;-67
2022/09/27 02:27:19;;;;;;;;;;;24.00;46.60;;;;;;1458856;77;1610;-68
2022/09/27 02:29:23;;;;;;;;;;;24.00;46.50;;;;;;1511243;77;1099;-68
2022/09/27 02:31:25;;;;;;;;;;;24.00;46.50;;;;;;1517439;77;1796;-69
2022/09/27 02:33:29;;;;;;;;;;;24.10;46.50;;;;;;1523542;77;673;-67
2022/09/27 02:35:31;;;;;;;;;;;24.10;46.60;;;;;;1513782;77;1011;-68
2022/09/27 02:37:33;;;;;;;;;;;24.10;46.50;;;;;;1529013;77;616;-68
2022/09/27 02:39:35;;;;;;;;;;;24.00;46.80;;;;;;1521020;76;1936;-68
2022/09/27 02:41:37;;;;;;;;;;;24.00;46.90;;;;;;1520340;77;1633;-68
2022/09/27 02:43:39;;;;;;;;;;;24.00;47.10;;;;;;1513490;77;743;-69
2022/09/27 02:45:52;;;;;;;;;;;23.90;47.30;;;;;;1508410;77;773;-68
2022/09/27 02:47:55;;;;;;;;;;;23.90;47.50;;;;;;1487785;78;1989;-69
2022/09/27 02:50:11;;;;;;;;;;;23.80;47.60;;;;;;1512873;77;2223;-70
2022/09/27 02:52:27;;;;;;;;;;;23.80;47.80;;;;;;1511962;77;734;-69
2022/09/27 02:54:43;;;;;;;;;;;23.80;47.90;;;;;;1523159;77;1721;-68
2022/09/27 02:57:01;;;;;;;;;;;23.80;48.30;;;;;;1521208;77;1534;-68
2022/09/27 02:59:04;;;;;;;;;;;23.70;48.60;;;;;;1512300;77;1959;-68
2022/09/27 03:01:08;;;;;;;;;;;23.80;48.90;;;;;;1503833;77;1668;-67
2022/09/27 03:03:15;;;;;;;;;;;23.70;49.10;;;;;;1509601;77;614;-67
2022/09/27 03:05:18;;;;;;;;;;;23.70;49.20;;;;;;1501154;77;1637;-67
2022/09/27 03:07:20;;;;;;;;;;;23.70;49.30;;;;;;1487023;78;1037;-67
2022/09/27 03:09:26;;;;;;;;;;;23.70;49.20;;;;;;1492966;78;1551;-65
2022/09/27 03:11:28;;;;;;;;;;;23.70;49.20;;;;;;1500137;78;2101;-67
2022/09/27 03:13:30;;;;;;;;;;;23.70;49.20;;;;;;1533029;77;677;-68
2022/09/27 03:15:32;;;;;;;;;;;23.70;49.30;;;;;;1523429;77;798;-69
2022/09/27 03:17:35;;;;;;;;;;;23.70;49.30;;;;;;1521241;77;708;-68
2022/09/27 03:19:36;;;;;;;;;;;23.70;49.20;;;;;;1517968;77;1912;-68
2022/09/27 03:21:38;;;;;;;;;;;23.70;49.30;;;;;;1514952;77;685;-68
2022/09/27 03:23:40;;;;;;;;;;;23.70;49.20;;;;;;1512551;77;1570;-68
2022/09/27 03:25:42;;;;;;;;;;;23.70;49.20;;;;;;1524166;77;684;-68
2022/09/27 03:27:44;;;;;;;;;;;23.80;49.10;;;;;;1528246;77;679;-68
2022/09/27 03:29:46;;;;;;;;;;;23.80;49.10;;;;;;1522742;77;1139;-68
2022/09/27 03:31:48;;;;;;;;;;;23.80;49.10;;;;;;1522665;77;714;-68
2022/09/27 03:33:50;;;;;;;;;;;23.80;49.10;;;;;;1506433;77;745;-67
2022/09/27 03:35:52;;;;;;;;;;;23.80;49.10;;;;;;1515068;77;731;-68
2022/09/27 03:37:54;;;;;;;;;;;23.80;48.90;;;;;;1517063;77;1606;-68
2022/09/27 03:39:56;;;;;;;;;;;23.90;48.90;;;;;;1532769;77;1948;-68
2022/09/27 03:41:58;;;;;;;;;;;23.90;48.80;;;;;;1519844;77;798;-67
2022/09/27 03:44:00;;;;;;;;;;;23.90;48.70;;;;;;1526334;76;729;-68
2022/09/27 03:46:01;;;;;;;;;;;24.00;48.30;;;;;;1523652;77;696;-68
2022/09/27 03:48:03;;;;;;;;;;;24.10;48.10;;;;;;1511395;77;701;-66
2022/09/27 03:50:07;;;;;;;;;;;24.20;47.80;;;;;;1501385;78;1144;-68
2022/09/27 03:52:09;;;;;;;;;;;24.20;47.60;;;;;;1517379;77;1541;-67
2022/09/27 03:54:10;;;;;;;;;;;24.30;47.50;;;;;;1494059;78;678;-67
2022/09/27 03:56:12;;;;;;;;;;;24.30;47.30;;;;;;1498240;78;668;-67
2022/09/27 03:58:14;;;;;;;;;;;24.40;47.30;;;;;;1502859;77;709;-68
2022/09/27 04:00:16;;;;;;;;;;;24.40;47.10;;;;;;1500914;77;1949;-68
2022/09/27 04:02:18;;;;;;;;;;;24.50;46.90;;;;;;1482615;78;671;-67
2022/09/27 04:04:20;;;;;;;;;;;24.50;46.80;;;;;;1511590;77;622;-67
2022/09/27 04:06:22;;;;;;;;;;;24.50;46.80;;;;;;1494706;78;1592;-70
2022/09/27 04:08:24;;;;;;;;;;;24.50;46.90;;;;;;1493583;78;834;-68
2022/09/27 04:10:26;;;;;;;;;;;24.50;46.80;;;;;;1507214;77;1108;-68
2022/09/27 04:12:28;;;;;;;;;;;24.50;46.80;;;;;;1488108;78;748;-68
2022/09/27 04:14:30;;;;;;;;;;;24.50;46.80;;;;;;1497817;78;694;-67
2022/09/27 04:16:32;;;;;;;;;;;24.50;46.80;;;;;;1517233;77;803;-68
2022/09/27 04:18:34;;;;;;;;;;;24.50;46.80;;;;;;1484511;78;1074;-67
2022/09/27 04:20:36;;;;;;;;;;;24.50;46.80;;;;;;1492722;78;1939;-68
2022/09/27 04:22:42;;;;;;;;;;;24.50;46.80;;;;;;1489311;78;632;-68
2022/09/27 04:24:44;;;;;;;;;;;24.50;46.80;;;;;;1481710;78;690;-68
2022/09/27 04:26:48;;;;;;;;;;;24.50;46.80;;;;;;1521431;77;652;-68
2022/09/27 04:28:50;;;;;;;;;;;24.50;46.90;;;;;;1488486;78;1135;-67
2022/09/27 04:30:53;;;;;;;;;;;24.50;47.00;;;;;;1496164;78;914;-67
2022/09/27 04:32:54;;;;;;;;;;;24.50;47.00;;;;;;1488647;78;737;-67
2022/09/27 04:37:16;;;;;;;;;;;24.50;47.00;;;;;;1485580;78;1630;-68
2022/09/27 04:39:18;;;;;;;;;;;24.50;47.00;;;;;;1492366;78;1956;-67
2022/09/27 04:41:20;;;;;;;;;;;24.50;47.10;;;;;;1511123;76;807;-67
2022/09/27 04:43:22;;;;;;;;;;;24.60;47.00;;;;;;1513399;77;652;-68
2022/09/27 04:45:24;;;;;;;;;;;24.60;46.90;;;;;;1503457;77;736;-64
2022/09/27 04:47:26;;;;;;;;;;;24.60;46.90;;;;;;1494025;77;1589;-67
2022/09/27 04:49:28;;;;;;;;;;;24.50;47.10;;;;;;1514312;77;1110;-67
2022/09/27 04:51:29;;;;;;;;;;;24.50;47.30;;;;;;1507727;77;701;-68
2022/09/27 04:53:31;;;;;;;;;;;24.60;47.30;;;;;;1509429;77;705;-67
2022/09/27 04:55:33;;;;;;;;;;;24.50;47.30;;;;;;1493719;77;722;-66
2022/09/27 04:57:35;;;;;;;;;;;24.60;47.10;;;;;;1484905;78;702;-67
2022/09/27 04:59:39;;;;;;;;;;;24.60;47.10;;;;;;1533864;76;1937;-68
2022/09/27 05:01:41;;;;;;;;;;;24.50;47.20;;;;;;1525510;77;1568;-67
2022/09/27 05:03:42;;;;;;;;;;;24.50;47.40;;;;;;1491431;78;693;-67
2022/09/27 05:05:44;;;;;;;;;;;24.40;47.60;;;;;;1490202;78;760;-67
2022/09/27 05:07:46;;;;;;;;;;;24.30;47.80;;;;;;1514652;77;684;-67
2022/09/27 05:09:48;;;;;;;;;;;24.30;48.00;;;;;;1513700;77;1175;-68
2022/09/27 05:11:50;;;;;;;;;;;24.30;48.10;;;;;;1512680;77;663;-67
2022/09/27 05:13:52;;;;;;;;;;;24.20;47.90;;;;;;1524075;76;729;-67
2022/09/27 05:15:54;;;;;;;;;;;24.40;48.40;;;;;;1489880;78;1562;-67
2022/09/27 05:17:57;;;;;;;;;;;24.20;48.40;;;;;;1492212;78;806;-68
2022/09/27 05:19:59;;;;;;;;;;;24.20;48.60;;;;;;1489273;78;1928;-66
2022/09/27 05:22:01;;;;;;;;;;;24.20;48.40;;;;;;1538952;76;773;-67
2022/09/27 05:24:03;;;;;;;;;;;24.20;48.40;;;;;;1520545;77;743;-67
2022/09/27 05:26:05;;;;;;;;;;;24.20;48.30;;;;;;1533856;77;746;-67
2022/09/27 05:28:08;;;;;;;;;;;24.30;48.10;;;;;;1492504;78;688;-67
2022/09/27 05:30:10;;;;;;;;;;;24.30;47.90;;;;;;1482352;78;1557;-67
2022/09/27 05:32:12;;;;;;;;;;;24.30;47.80;;;;;;1529441;76;704;-67
2022/09/27 05:34:14;;;;;;;;;;;24.40;47.60;;;;;;1532378;76;759;-68
2022/09/27 05:36:16;;;;;;;;;;;24.40;47.50;;;;;;1502528;77;687;-68
2022/09/27 05:38:18;;;;;;;;;;;24.40;47.60;;;;;;1515256;77;551;-67
2022/09/27 05:40:23;;;;;;;;;;;24.40;47.50;;;;;;1554884;73;229175;-66
2022/09/27 05:42:23;;;;;;;;;;;24.50;47.50;;;;;;1567307;74;1666;-67
2022/09/27 05:44:25;;;;;;;;;;;24.40;47.40;;;;;;1557833;74;1591;-65
2022/09/27 05:46:27;;;;;;;;;;;24.30;47.80;;;;;;1563640;74;724;-65
2022/09/27 05:48:29;;;;;;;;;;;24.20;47.80;;;;;;1558581;74;778;-68
2022/09/27 05:50:31;;;;;;;;;;;24.20;47.80;;;;;;1583759;73;1220;-65
2022/09/27 05:52:33;;;;;;;;;;;24.40;47.80;;;;;;1594543;73;731;-66
2022/09/27 05:54:35;;;;;;;;;;;24.40;47.50;;;;;;1604727;73;708;-65
2022/09/27 05:56:37;;;;;;;;;;;24.50;47.30;;;;;;1593097;73;681;-66
2022/09/27 05:58:39;;;;;;;;;;;24.60;47.10;;;;;;1589980;73;1555;-65
2022/09/27 06:00:42;;;;;;;;;;;24.50;47.00;;;;;;1580647;73;1946;-65
2022/09/27 06:02:44;;;;;;;;;;;24.60;46.90;;;;;;1552746;74;611;-65
2022/09/27 06:04:45;;;;;;;;;;;24.60;46.80;;;;;;1592831;73;546;-65
2022/09/27 06:06:47;;;;;;;;;;;24.60;46.80;;;;;;1581036;74;695;-66
2022/09/27 06:08:49;;;;;;;;;;;24.60;46.60;;;;;;1542970;75;714;-65
2022/09/27 06:10:53;;;;;;;;;;;24.60;46.60;;;;;;1548526;75;1263;-63
2022/09/27 06:12:57;;;;;;;;;;;24.50;46.60;;;;;;1592047;73;1942;-64
2022/09/27 06:14:59;;;;;;;;;;;24.60;46.80;;;;;;1582399;73;1738;-65
2022/09/27 06:17:01;;;;;;;;;;;24.50;46.80;;;;;;1567663;74;664;-65
2022/09/27 06:19:03;;;;;;;;;;;24.60;46.80;;;;;;1566332;74;1120;-66
2022/09/27 06:21:05;;;;;;;;;;;24.60;46.80;;;;;;1559175;74;1902;-67
2022/09/27 06:23:21;;;;;;;;;;;24.60;46.70;;;;;;1543340;76;752;-65
2022/09/27 06:25:23;;;;;;;;;;;24.50;46.70;;;;;;1545193;75;676;-66
2022/09/27 06:27:25;;;;;;;;;;;24.50;46.80;;;;;;1560546;74;1606;-67
2022/09/27 06:29:28;;;;;;;;;;;24.50;46.80;;;;;;1562206;76;1153;-66
2022/09/27 06:31:29;;;;;;;;;;;24.50;46.70;;;;;;1576555;74;797;-65
2022/09/27 06:33:31;;;;;;;;;;;24.50;46.60;;;;;;1564956;75;767;-66
2022/09/27 06:35:34;;;;;;;;;;;24.50;46.60;;;;;;1565738;74;784;-65
2022/09/27 06:37:36;;;;;;;;;;;24.50;46.50;;;;;;1559175;74;748;-65
2022/09/27 06:39:38;;;;;;;;;;;24.50;46.50;;;;;;1574358;74;1942;-65
2022/09/27 06:41:40;;;;;;;;;;;24.50;46.50;;;;;;1568118;74;1544;-66
2022/09/27 06:43:42;;;;;;;;;;;24.50;46.50;;;;;;1562970;75;724;-65
2022/09/27 06:45:44;;;;;;;;;;;24.50;46.50;;;;;;1557639;74;645;-68
2022/09/27 06:47:46;;;;;;;;;;;24.50;46.60;;;;;;1561083;75;723;-65
2022/09/27 06:49:48;;;;;;;;;;;24.50;46.50;;;;;;1539450;76;1150;-65
2022/09/27 06:51:51;;;;;;;;;;;24.40;46.40;;;;;;1534983;75;697;-65
2022/09/27 06:53:53;;;;;;;;;;;24.50;46.50;;;;;;1585074;74;815;-65
2022/09/27 06:55:56;;;;;;;;;;;24.40;46.50;;;;;;1565897;74;1685;-65
2022/09/27 07:00:25;;;;;;;;;;;24.40;46.60;;;;;;1592377;73;1944;-64
2022/09/27 07:02:27;;;;;;;;;;;24.40;46.60;;;;;;1561169;74;701;-64
2022/09/27 07:04:29;;;;;;;;;;;24.40;46.70;;;;;;1562523;74;612;-65
2022/09/27 07:06:31;;;;;;;;;;;24.40;46.70;;;;;;1564220;74;725;-65
2022/09/27 07:08:34;;;;;;;;;;;24.40;46.70;;;;;;1569725;74;1613;-65
2022/09/27 07:10:36;;;;;;;;;;;24.30;46.70;;;;;;1593235;73;1175;-65
2022/09/27 07:12:38;;;;;;;;;;;24.40;46.80;;;;;;1588977;73;666;-66
2022/09/27 07:14:40;;;;;;;;;;;24.30;46.80;;;;;;1610605;73;728;-65
2022/09/27 07:16:42;;;;;;;;;;;24.40;46.80;;;;;;1594720;73;712;-65
2022/09/27 07:18:44;;;;;;;;;;;24.40;46.80;;;;;;1572979;74;751;-65
2022/09/27 07:20:46;;;;;;;;;;;24.40;46.70;;;;;;1540414;76;1957;-65
2022/09/27 07:22:48;;;;;;;;;;;24.40;46.70;;;;;;1573977;74;1567;-65
2022/09/27 07:24:49;;;;;;;;;;;24.50;46.60;;;;;;1539267;76;777;-66
2022/09/27 07:26:51;;;;;;;;;;;24.50;46.60;;;;;;1537397;76;728;-64
2022/09/27 07:28:53;;;;;;;;;;;24.50;46.50;;;;;;1572647;74;738;-64
2022/09/27 07:30:55;;;;;;;;;;;24.50;46.50;;;;;;1561430;74;703;-64
2022/09/27 07:33:00;;;;;;;;;;;24.50;46.50;;;;;;1535973;76;738;-64
2022/09/27 07:35:03;;;;;;;;;;;24.50;46.60;;;;;;1592775;73;671;-67
2022/09/27 07:37:05;;;;;;;;;;;24.60;46.50;;;;;;1595102;73;1594;-65
2022/09/27 07:39:06;;;;;;;;;;;24.60;46.40;;;;;;1572376;74;1124;-66
2022/09/27 07:41:09;;;;;;;;;;;24.60;46.30;;;;;;1573157;74;1938;-66
2022/09/27 07:43:11;;;;;;;;;;;24.60;46.30;;;;;;1580191;74;724;-64
2022/09/27 07:45:16;;;;;;;;;;;24.70;46.40;;;;;;1564005;74;839;-65
2022/09/27 07:47:18;;;;;;;;;;;24.60;46.30;;;;;;1533401;75;1655;-65
2022/09/27 07:49:20;;;;;;;;;;;24.60;46.30;;;;;;1547211;76;1106;-65
2022/09/27 07:51:22;;;;;;;;;;;24.50;46.30;;;;;;1535860;76;1535;-66
2022/09/27 07:53:24;;;;;;;;;;;24.50;46.30;;;;;;1571220;74;789;-66
2022/09/27 07:55:25;;;;;;;;;;;24.50;46.20;;;;;;1559510;74;771;-64
2022/09/27 07:57:28;;;;;;;;;;;24.50;46.20;;;;;;1551154;74;735;-64
2022/09/27 07:59:30;;;;;;;;;;;24.60;46.00;;;;;;1549154;76;1160;-66
2022/09/27 08:01:33;;;;;;;;;;;24.60;46.00;;;;;;1602892;73;1936;-66
2022/09/27 08:03:35;;;;;;;;;;;24.60;46.00;;;;;;1603890;73;812;-65
2022/09/27 08:05:37;;;;;;;;;;;24.60;46.00;;;;;;1574734;74;1591;-65
2022/09/27 08:07:39;;;;;;;;;;;24.60;45.90;;;;;;1569908;74;700;-65
2022/09/27 08:09:41;;;;;;;;;;;24.60;45.80;;;;;;1564708;74;1210;-65
2022/09/27 08:11:44;;;;;;;;;;;24.60;45.80;;;;;;1580328;74;802;-66
2022/09/27 08:13:48;;;;;;;;;;;24.60;45.80;;;;;;1573320;74;660;-65
2022/09/27 08:15:51;;;;;;;;;;;24.50;45.80;;;;;;1544668;76;1658;-65
2022/09/27 08:17:53;;;;;;;;;;;24.60;45.80;;;;;;1544565;76;734;-62
2022/09/27 08:19:55;;;;;;;;;;;24.60;45.80;;;;;;1595311;73;1695;-65
2022/09/27 08:21:57;;;;;;;;;;;24.60;45.80;;;;;;1588609;73;1934;-64
2022/09/27 08:24:00;;;;;;;;;;;24.60;45.80;;;;;;1608767;73;741;-65
2022/09/27 08:26:02;;;;;;;;;;;24.60;45.90;;;;;;1598257;73;749;-66
2022/09/27 08:28:03;;;;;;;;;;;24.50;45.90;;;;;;1584498;73;651;-63
2022/09/27 08:30:06;;;;;;;;;;;24.60;45.90;;;;;;1565668;74;1146;-65
2022/09/27 08:32:08;;;;;;;;;;;24.60;45.90;;;;;;1559711;75;716;-65
2022/09/27 08:34:10;;;;;;;;;;;24.50;45.90;;;;;;1560333;75;1674;-65
2022/09/27 08:36:12;;;;;;;;;;;24.60;45.90;;;;;;1592146;73;666;-65
2022/09/27 08:38:14;;;;;;;;;;;24.60;45.90;;;;;;1598403;73;627;-65
2022/09/27 08:40:16;;;;;;;;;;;24.50;46.00;;;;;;1600544;73;1131;-65
2022/09/27 08:42:26;;;;;;;;;;;24.60;46.00;;;;;;1608150;73;1898;-65
2022/09/27 08:44:42;;;;;;;;;;;24.50;46.00;;;;;;1603655;73;1791;-65
2022/09/27 08:46:50;;;;;;;;;;;24.50;46.00;;;;;;1535498;75;1923;-64
2022/09/27 08:48:53;;;;;;;;;;;24.60;45.90;;;;;;1544015;75;1858;-63
2022/09/27 08:50:55;;;;;;;;;;;24.60;45.90;;;;;;1563252;74;653;-65
2022/09/27 08:52:58;;;;;;;;;;;24.60;46.00;;;;;;1554299;74;772;-65
2022/09/27 08:55:01;;;;;;;;;;;24.60;46.10;;;;;;1534173;75;695;-64
2022/09/27 08:57:04;;;;;;;;;;;24.60;46.10;;;;;;1598047;73;885;-65
2022/09/27 08:59:07;;;;;;;;;;;24.60;46.00;;;;;;1595543;73;1176;-64
2022/09/27 09:01:11;;;;;;;;;;;24.70;46.10;;;;;;1598918;74;1921;-65
2022/09/27 09:03:17;;;;;;;;;;;24.50;46.10;;;;;;1603877;73;700;-67
2022/09/27 09:05:29;;;;;;;;;;;24.50;46.30;;;;;;1602789;73;1526;-65
2022/09/27 09:07:47;;;;;;;;;;;24.50;46.40;;;;;;1597299;73;775;-65
2022/09/27 09:09:54;;;;;;;;;;;24.40;46.40;;;;;;1602943;73;1137;-64
2022/09/27 09:14:33;;;;;;;;;;;24.60;45.80;;;;;;1589730;74;713;-65
2022/09/27 09:16:51;;;;;;;;;;;24.60;45.70;;;;;;1594666;73;1884;-65
2022/09/27 09:19:03;;;;;;;;;;;24.60;45.60;;;;;;1585229;73;1922;-65
2022/09/27 09:21:10;;;;;;;;;;;24.60;45.50;;;;;;1594621;74;1936;-65
2022/09/27 09:23:30;;;;;;;;;;;24.60;45.40;;;;;;1592989;73;1050;-64
2022/09/27 09:25:42;;;;;;;;;;;24.60;45.40;;;;;;1592031;73;789;-64
2022/09/27 09:27:46;;;;;;;;;;;24.50;45.40;;;;;;1523937;77;1064;-65
2022/09/27 09:29:55;;;;;;;;;;;24.50;45.40;;;;;;1583382;73;1129;-64
2022/09/27 09:31:59;;;;;;;;;;;24.30;45.40;;;;;;1600057;73;760;-64
2022/09/27 09:34:02;;;;;;;;;;;24.30;45.60;;;;;;1581574;73;753;-64
2022/09/27 09:36:12;;;;;;;;;;;24.30;45.60;;;;;;1597523;73;2117;-65
2022/09/27 09:38:16;;;;;;;;;;;24.30;45.70;;;;;;1585443;73;803;-64
2022/09/27 09:40:24;;;;;;;;;;;24.30;45.70;;;;;;1569858;74;1377;-64
2022/09/27 09:42:31;;;;;;;;;;;24.30;45.70;;;;;;1591408;73;1922;-65
2022/09/27 09:44:34;;;;;;;;;;;24.30;45.70;;;;;;1594652;73;748;-65
2022/09/27 09:46:37;;;;;;;;;;;24.20;45.50;;;;;;1593437;73;896;-64
2022/09/27 09:48:48;;;;;;;;;;;24.20;45.50;;;;;;1587794;73;755;-65
2022/09/27 09:50:58;;;;;;;;;;;24.20;45.70;;;;;;1592986;73;1127;-65
2022/09/27 09:53:18;;;;;;;;;;;24.30;45.80;;;;;;1605195;73;730;-64
2022/09/27 09:55:23;;;;;;;;;;;24.20;45.70;;;;;;1594699;73;699;-63
2022/09/27 09:57:27;;;;;;;;;;;24.20;45.70;;;;;;1595852;73;729;-64
2022/09/27 09:59:40;;;;;;;;;;;24.20;45.80;;;;;;1598132;73;1145;-65
2022/09/27 10:01:46;;;;;;;;;;;24.20;45.90;;;;;;1600212;73;1907;-66
2022/09/27 10:03:48;;;;;;;;;;;24.10;45.90;;;;;;1587178;73;819;-65
2022/09/27 10:05:50;;;;;;;;;;;24.10;46.00;;;;;;1600272;73;664;-65
2022/09/27 10:07:53;;;;;;;;;;;24.10;46.00;;;;;;1589309;73;759;-66
2022/09/27 10:09:55;;;;;;;;;;;24.10;46.00;;;;;;1592114;73;1179;-65
2022/09/27 10:11:57;;;;;;;;;;;24.10;46.00;;;;;;1591563;73;1584;-64
2022/09/27 10:13:59;;;;;;;;;;;24.20;45.90;;;;;;1596908;73;784;-65
2022/09/27 10:16:05;;;;;;;;;;;24.10;45.90;;;;;;1592862;73;743;-66
2022/09/27 10:18:08;;;;;;;;;;;24.20;45.90;;;;;;1590288;73;610;-64
2022/09/27 10:20:12;;;;;;;;;;;24.10;45.80;;;;;;1601076;73;1132;-65
2022/09/27 10:22:18;;;;;;;;;;;24.20;45.90;;;;;;1605611;73;1902;-65
2022/09/27 10:24:20;;;;;;;;;;;24.10;45.90;;;;;;1605416;73;557;-65
2022/09/27 10:26:23;;;;;;;;;;;24.20;45.90;;;;;;1603827;73;716;-66
2022/09/27 10:28:31;;;;;;;;;;;24.10;45.80;;;;;;1600858;73;713;-65
2022/09/27 10:30:33;;;;;;;;;;;24.10;45.70;;;;;;1602439;73;1504;-65
2022/09/27 10:32:35;;;;;;;;;;;24.10;45.60;;;;;;1611066;73;710;-64
2022/09/27 10:34:37;;;;;;;;;;;24.00;45.30;;;;;;1609021;73;670;-65
2022/09/27 10:36:39;;;;;;;;;;;24.00;45.10;;;;;;1603885;73;656;-65
2022/09/27 10:38:41;;;;;;;;;;;24.00;45.10;;;;;;1600891;74;673;-64
2022/09/27 10:40:43;;;;;;;;;;;24.00;45.00;;;;;;1574707;74;1161;-65
2022/09/27 10:42:45;;;;;;;;;;;24.00;44.90;;;;;;1545416;76;1933;-65
2022/09/27 10:44:47;;;;;;;;;;;24.00;44.80;;;;;;1543795;76;690;-65
2022/09/27 10:46:50;;;;;;;;;;;24.00;44.60;;;;;;1544609;76;657;-65
2022/09/27 10:49:09;;;;;;;;;;;24.00;44.60;;;;;;1542964;76;1903;-64
2022/09/27 10:51:27;;;;;;;;;;;24.00;44.40;;;;;;1556770;75;1204;-64
2022/09/27 10:53:29;;;;;;;;;;;24.00;44.30;;;;;;1575623;73;2198;-65
2022/09/27 10:55:35;;;;;;;;;;;24.00;44.20;;;;;;1566962;74;656;-64
2022/09/27 10:57:37;;;;;;;;;;;24.00;44.20;;;;;;1576397;74;706;-65
2022/09/27 10:59:39;;;;;;;;;;;24.00;44.00;;;;;;1576961;74;1145;-65
2022/09/27 11:01:44;;;;;;;;;;;24.00;43.90;;;;;;1572742;74;1921;-65
2022/09/27 11:03:47;;;;;;;;;;;24.00;43.80;;;;;;1580732;74;1175;-66
2022/09/27 11:05:49;;;;;;;;;;;24.00;43.70;;;;;;1584211;74;627;-65
2022/09/27 11:07:53;;;;;;;;;;;24.00;43.60;;;;;;1570170;74;1268;-64
2022/09/27 11:10:01;;;;;;;;;;;24.10;43.60;;;;;;1572410;74;1807;-64
2022/09/27 11:12:09;;;;;;;;;;;24.00;43.40;;;;;;1534036;76;1662;-65
2022/09/27 11:14:17;;;;;;;;;;;24.00;43.30;;;;;;1567063;74;823;-63
2022/09/27 11:16:28;;;;;;;;;;;24.00;43.10;;;;;;1569669;74;748;-65
2022/09/27 11:18:32;;;;;;;;;;;24.00;43.00;;;;;;1557000;74;888;-67
2022/09/27 11:20:44;;;;;;;;;;;24.00;42.90;;;;;;1601382;73;1477;-65
2022/09/27 11:23:04;;;;;;;;;;;23.90;42.90;;;;;;1581874;73;1930;-67
2022/09/27 11:25:08;;;;;;;;;;;23.90;42.90;;;;;;1567472;74;776;-68
2022/09/27 11:27:28;;;;;;;;;;;23.90;42.70;;;;;;1546707;74;719;-65
2022/09/27 11:29:34;;;;;;;;;;;23.90;42.60;;;;;;1549228;74;1136;-66
2022/09/27 11:31:38;;;;;;;;;;;23.90;42.70;;;;;;1558758;74;850;-65
2022/09/27 11:33:56;;;;;;;;;;;24.00;42.50;;;;;;1539892;75;704;-65
2022/09/27 11:36:03;;;;;;;;;;;23.90;42.50;;;;;;1543357;75;1972;-65
2022/09/27 11:38:10;;;;;;;;;;;23.90;42.30;;;;;;1548529;74;782;-66
2022/09/27 11:40:13;;;;;;;;;;;23.90;42.30;;;;;;1546477;74;3156;-67
2022/09/27 11:42:34;;;;;;;;;;;23.90;42.20;;;;;;1575273;74;1909;-66
2022/09/27 11:44:54;;;;;;;;;;;23.90;42.00;;;;;;1540962;75;795;-66
2022/09/27 11:47:03;;;;;;;;;;;23.80;41.80;;;;;;1537586;75;739;-67
2022/09/27 11:49:10;;;;;;;;;;;23.80;41.70;;;;;;1547565;74;2001;-66
2022/09/27 11:51:16;;;;;;;;;;;23.80;41.70;;;;;;1523466;76;1999;-68
2022/09/27 11:53:20;;;;;;;;;;;23.80;41.50;;;;;;1562941;75;673;-67
2022/09/27 11:55:23;;;;;;;;;;;23.80;41.60;;;;;;1573482;74;2185;-65
2022/09/27 11:57:27;;;;;;;;;;;23.80;41.50;;;;;;1543816;76;1852;-67
2022/09/27 11:59:31;;;;;;;;;;;23.80;41.40;;;;;;1531003;75;1099;-66
2022/09/27 12:01:34;;;;;;;;;;;23.80;41.40;;;;;;1535356;75;1992;-66
2022/09/27 12:03:47;;;;;;;;;;;23.80;41.40;;;;;;1552183;75;1600;-66
2022/09/27 12:06:02;;;;;;;;;;;23.80;41.40;;;;;;1542532;76;1697;-66
2022/09/27 12:08:09;;;;;;;;;;;23.90;41.50;;;;;;1565526;75;792;-66
2022/09/27 12:10:12;;;;;;;;;;;23.90;41.50;;;;;;1553938;75;1142;-67
2022/09/27 12:12:16;;;;;;;;;;;23.90;41.50;;;;;;1549282;75;1630;-66
2022/09/27 12:14:35;;;;;;;;;;;24.00;41.50;;;;;;1575808;74;707;-67
2022/09/27 12:16:37;;;;;;;;;;;24.00;41.40;;;;;;1564518;74;670;-67
2022/09/27 12:18:39;;;;;;;;;;;24.00;41.40;;;;;;1570211;75;679;-66
2022/09/27 12:20:41;;;;;;;;;;;24.00;41.40;;;;;;1577702;74;1188;-66
2022/09/27 12:22:56;;;;;;;;;;;24.00;41.40;;;;;;1575637;75;1918;-66
2022/09/27 12:24:58;;;;;;;;;;;24.10;41.60;;;;;;1570614;75;644;-66
2022/09/27 12:27:05;;;;;;;;;;;24.10;41.50;;;;;;1544914;75;754;-66
2022/09/27 12:29:12;;;;;;;;;;;24.00;41.50;;;;;;1543629;75;1912;-66